sensor_id;sensor_type;location;lat;lon;timestamp;pressure;altitude;pressure_sealevel;temperature;humidity
43071;BME280;36278;47.952;21.714;2023-01-29T00:02:00;100981.69;;;-0.10;87.38
43071;BME280;36278;47.952;21.714;2023-01-29T00:04:27;100985.31;;;-0.17;88.51
43071;BME280;36278;47.952;21.714;2023-01-29T00:06:53;100992.09;;;-0.10;87.88
43071;BME280;36278;47.952;21.714;2023-01-29T00:09:19;100990.47;;;-0.14;88.25
43071;BME280;36278;47.952;21.714;2023-01-29T00:11:44;100988.75;;;-0.15;88.77
43071;BME280;36278;47.952;21.714;2023-01-29T00:14:10;100986.00;;;-0.09;88.41
43071;BME280;36278;47.952;21.714;2023-01-29T00:16:36;100993.81;;;-0.09;88.20
43071;BME280;36278;47.952;21.714;2023-01-29T00:19:02;100986.00;;;-0.07;87.81
43071;BME280;36278;47.952;21.714;2023-01-29T00:21:27;100985.28;;;-0.15;88.47
43071;BME280;36278;47.952;21.714;2023-01-29T00:23:55;100997.47;;;-0.16;87.91
43071;BME280;36278;47.952;21.714;2023-01-29T00:26:21;100997.38;;;-0.13;88.53
43071;BME280;36278;47.952;21.714;2023-01-29T00:28:47;100993.88;;;-0.12;88.14
43071;BME280;36278;47.952;21.714;2023-01-29T00:31:15;100995.56;;;-0.08;88.47
43071;BME280;36278;47.952;21.714;2023-01-29T00:33:41;100995.72;;;-0.15;88.75
43071;BME280;36278;47.952;21.714;2023-01-29T00:36:09;100993.97;;;-0.15;88.87
43071;BME280;36278;47.952;21.714;2023-01-29T00:38:36;101000.06;;;-0.16;89.03
43071;BME280;36278;47.952;21.714;2023-01-29T00:41:13;101001.78;;;-0.15;89.13
43071;BME280;36278;47.952;21.714;2023-01-29T00:43:58;101005.97;;;-0.09;88.69
43071;BME280;36278;47.952;21.714;2023-01-29T00:46:42;101002.50;;;-0.10;88.25
43071;BME280;36278;47.952;21.714;2023-01-29T00:49:08;101003.38;;;-0.08;87.99
43071;BME280;36278;47.952;21.714;2023-01-29T00:51:34;101015.25;;;0.04;87.93
43071;BME280;36278;47.952;21.714;2023-01-29T00:54:00;101017.69;;;0.12;87.56
43071;BME280;36278;47.952;21.714;2023-01-29T00:56:27;101016.69;;;0.19;87.38
43071;BME280;36278;47.952;21.714;2023-01-29T00:58:53;101016.56;;;0.25;86.50
43071;BME280;36278;47.952;21.714;2023-01-29T01:01:19;101013.00;;;0.27;86.70
43071;BME280;36278;47.952;21.714;2023-01-29T01:04:05;101015.41;;;0.37;86.84
43071;BME280;36278;47.952;21.714;2023-01-29T01:06:30;101024.03;;;0.39;86.26
43071;BME280;36278;47.952;21.714;2023-01-29T01:08:56;101016.31;;;0.36;86.19
43071;BME280;36278;47.952;21.714;2023-01-29T01:11:40;101021.44;;;0.39;86.21
43071;BME280;36278;47.952;21.714;2023-01-29T01:14:05;101031.03;;;0.37;85.88
43071;BME280;36278;47.952;21.714;2023-01-29T01:16:31;101022.16;;;0.45;85.70
43071;BME280;36278;47.952;21.714;2023-01-29T01:18:56;101026.56;;;0.43;86.02
43071;BME280;36278;47.952;21.714;2023-01-29T01:21:22;101030.06;;;0.42;85.60
43071;BME280;36278;47.952;21.714;2023-01-29T01:23:47;101027.59;;;0.36;85.95
43071;BME280;36278;47.952;21.714;2023-01-29T01:26:16;101019.69;;;0.41;85.57
43071;BME280;36278;47.952;21.714;2023-01-29T01:28:41;101027.16;;;0.54;84.88
43071;BME280;36278;47.952;21.714;2023-01-29T01:31:11;101030.84;;;0.46;86.13
43071;BME280;36278;47.952;21.714;2023-01-29T01:33:37;101037.88;;;0.42;85.22
43071;BME280;36278;47.952;21.714;2023-01-29T01:36:03;101019.75;;;0.36;85.47
43071;BME280;36278;47.952;21.714;2023-01-29T01:38:29;101037.78;;;0.45;85.50
43071;BME280;36278;47.952;21.714;2023-01-29T01:40:55;101029.09;;;0.46;85.63
43071;BME280;36278;47.952;21.714;2023-01-29T01:43:20;101024.69;;;0.48;84.88
43071;BME280;36278;47.952;21.714;2023-01-29T01:45:45;101036.00;;;0.49;85.49
43071;BME280;36278;47.952;21.714;2023-01-29T01:48:16;101041.03;;;0.55;86.07
43071;BME280;36278;47.952;21.714;2023-01-29T01:50:47;101046.22;;;0.56;85.28
43071;BME280;36278;47.952;21.714;2023-01-29T01:53:18;101041.03;;;0.55;84.67
43071;BME280;36278;47.952;21.714;2023-01-29T01:55:52;101042.84;;;0.53;84.62
43071;BME280;36278;47.952;21.714;2023-01-29T01:58:23;101038.56;;;0.50;85.49
43071;BME280;36278;47.952;21.714;2023-01-29T02:00:50;101047.28;;;0.49;85.86
43071;BME280;36278;47.952;21.714;2023-01-29T02:03:18;101038.78;;;0.41;85.85
43071;BME280;36278;47.952;21.714;2023-01-29T02:06:03;101052.59;;;0.45;85.46
43071;BME280;36278;47.952;21.714;2023-01-29T02:09:04;101045.41;;;0.54;85.43
43071;BME280;36278;47.952;21.714;2023-01-29T02:11:49;101052.44;;;0.51;85.66
43071;BME280;36278;47.952;21.714;2023-01-29T02:14:15;101048.13;;;0.48;85.64
43071;BME280;36278;47.952;21.714;2023-01-29T02:16:41;101062.06;;;0.49;85.60
43071;BME280;36278;47.952;21.714;2023-01-29T02:19:21;101062.75;;;0.55;85.86
43071;BME280;36278;47.952;21.714;2023-01-29T02:28:37;101060.19;;;0.54;85.61
43071;BME280;36278;47.952;21.714;2023-01-29T02:31:16;101062.78;;;0.54;85.48
43071;BME280;36278;47.952;21.714;2023-01-29T02:39:54;101062.22;;;0.41;85.76
43071;BME280;36278;47.952;21.714;2023-01-29T02:42:27;101067.19;;;0.52;85.11
43071;BME280;36278;47.952;21.714;2023-01-29T02:50:47;101068.00;;;0.54;85.87
43071;BME280;36278;47.952;21.714;2023-01-29T02:53:22;101062.91;;;0.49;85.01
43071;BME280;36278;47.952;21.714;2023-01-29T02:56:00;101067.91;;;0.59;84.80
43071;BME280;36278;47.952;21.714;2023-01-29T02:58:51;101067.84;;;0.62;84.70
43071;BME280;36278;47.952;21.714;2023-01-29T03:01:24;101076.56;;;0.61;85.21
43071;BME280;36278;47.952;21.714;2023-01-29T03:03:59;101084.28;;;0.65;84.17
43071;BME280;36278;47.952;21.714;2023-01-29T03:06:34;101081.66;;;0.67;85.20
43071;BME280;36278;47.952;21.714;2023-01-29T03:09:18;101077.25;;;0.69;84.56
43071;BME280;36278;47.952;21.714;2023-01-29T03:11:54;101079.06;;;0.65;84.28
43071;BME280;36278;47.952;21.714;2023-01-29T03:14:34;101081.72;;;0.62;84.63
43071;BME280;36278;47.952;21.714;2023-01-29T03:17:22;101087.59;;;0.72;84.64
43071;BME280;36278;47.952;21.714;2023-01-29T03:19:49;101091.78;;;0.79;83.94
43071;BME280;36278;47.952;21.714;2023-01-29T03:22:16;101099.81;;;0.70;84.09
43071;BME280;36278;47.952;21.714;2023-01-29T03:24:56;101098.78;;;0.77;84.03
43071;BME280;36278;47.952;21.714;2023-01-29T03:27:51;101098.81;;;0.75;83.83
43071;BME280;36278;47.952;21.714;2023-01-29T03:30:52;101096.00;;;0.84;83.74
43071;BME280;36278;47.952;21.714;2023-01-29T03:33:45;101100.22;;;0.90;83.50
43071;BME280;36278;47.952;21.714;2023-01-29T03:36:21;101103.97;;;0.78;83.32
43071;BME280;36278;47.952;21.714;2023-01-29T03:38:49;101098.56;;;0.86;82.99
43071;BME280;36278;47.952;21.714;2023-01-29T03:41:24;101096.09;;;0.81;83.66
43071;BME280;36278;47.952;21.714;2023-01-29T03:44:11;101103.16;;;0.76;83.35
43071;BME280;36278;47.952;21.714;2023-01-29T03:49:59;101099.91;;;0.67;83.56
43071;BME280;36278;47.952;21.714;2023-01-29T03:52:21;101100.41;;;0.81;83.31
43071;BME280;36278;47.952;21.714;2023-01-29T03:57:39;101104.69;;;0.85;82.23
43071;BME280;36278;47.952;21.714;2023-01-29T04:00:37;101112.00;;;0.69;82.75
43071;BME280;36278;47.952;21.714;2023-01-29T04:03:18;101103.16;;;0.76;82.83
43071;BME280;36278;47.952;21.714;2023-01-29T04:05:50;101095.41;;;0.73;83.24
43071;BME280;36278;47.952;21.714;2023-01-29T04:08:25;101100.53;;;0.76;82.61
43071;BME280;36278;47.952;21.714;2023-01-29T04:10:53;101103.78;;;0.86;82.02
43071;BME280;36278;47.952;21.714;2023-01-29T04:13:20;101103.16;;;0.76;83.07
43071;BME280;36278;47.952;21.714;2023-01-29T04:15:55;101094.50;;;0.73;82.22
43071;BME280;36278;47.952;21.714;2023-01-29T04:18:23;101105.00;;;0.71;83.21
43071;BME280;36278;47.952;21.714;2023-01-29T04:20:49;101103.78;;;0.86;82.26
43071;BME280;36278;47.952;21.714;2023-01-29T04:23:25;101102.22;;;0.79;82.37
43071;BME280;36278;47.952;21.714;2023-01-29T04:31:27;101098.06;;;0.70;81.86
43071;BME280;36278;47.952;21.714;2023-01-29T04:37:09;101099.03;;;0.66;81.84
43071;BME280;36278;47.952;21.714;2023-01-29T04:39:48;101110.94;;;0.78;82.83
43071;BME280;36278;47.952;21.714;2023-01-29T04:42:29;101103.06;;;0.79;81.80
43071;BME280;36278;47.952;21.714;2023-01-29T04:47:34;101094.28;;;0.83;80.09
43071;BME280;36278;47.952;21.714;2023-01-29T04:55:45;101095.56;;;0.66;81.70
43071;BME280;36278;47.952;21.714;2023-01-29T05:00:56;101093.47;;;0.81;80.81
43071;BME280;36278;47.952;21.714;2023-01-29T05:03:25;101089.94;;;0.84;81.21
43071;BME280;36278;47.952;21.714;2023-01-29T05:05:53;101087.38;;;0.81;81.10
43071;BME280;36278;47.952;21.714;2023-01-29T05:08:23;101088.28;;;0.80;81.11
43071;BME280;36278;47.952;21.714;2023-01-29T05:10:51;101099.63;;;0.77;81.26
43071;BME280;36278;47.952;21.714;2023-01-29T05:13:20;101091.69;;;0.83;81.51
43071;BME280;36278;47.952;21.714;2023-01-29T05:16:15;101091.72;;;0.80;81.52
43071;BME280;36278;47.952;21.714;2023-01-29T05:18:43;101095.00;;;0.90;80.26
43071;BME280;36278;47.952;21.714;2023-01-29T05:21:09;101080.28;;;0.88;80.64
43071;BME280;36278;47.952;21.714;2023-01-29T05:23:35;101087.63;;;1.07;79.45
43071;BME280;36278;47.952;21.714;2023-01-29T05:26:01;101090.47;;;0.98;79.53
43071;BME280;36278;47.952;21.714;2023-01-29T05:28:26;101087.72;;;1.03;79.69
43071;BME280;36278;47.952;21.714;2023-01-29T05:30:54;101096.63;;;0.94;79.82
43071;BME280;36278;47.952;21.714;2023-01-29T05:33:28;101099.16;;;0.99;80.00
43071;BME280;36278;47.952;21.714;2023-01-29T05:35:54;101098.25;;;1.00;79.65
43071;BME280;36278;47.952;21.714;2023-01-29T05:38:20;101105.28;;;0.98;79.85
43071;BME280;36278;47.952;21.714;2023-01-29T05:40:46;101101.09;;;0.91;80.16
43071;BME280;36278;47.952;21.714;2023-01-29T05:43:23;101100.47;;;0.79;80.52
43071;BME280;36278;47.952;21.714;2023-01-29T05:45:52;101100.41;;;0.82;79.79
43071;BME280;36278;47.952;21.714;2023-01-29T05:48:18;101109.03;;;0.84;80.48
43071;BME280;36278;47.952;21.714;2023-01-29T05:50:43;101109.03;;;0.84;80.42
43071;BME280;36278;47.952;21.714;2023-01-29T05:53:09;101112.50;;;0.85;80.60
43071;BME280;36278;47.952;21.714;2023-01-29T05:55:34;101108.91;;;0.89;80.35
43071;BME280;36278;47.952;21.714;2023-01-29T05:58:00;101113.16;;;0.95;79.40
43071;BME280;36278;47.952;21.714;2023-01-29T06:00:25;101115.56;;;1.02;79.03
43071;BME280;36278;47.952;21.714;2023-01-29T06:02:51;101121.00;;;0.93;79.54
43071;BME280;36278;47.952;21.714;2023-01-29T06:05:17;101124.69;;;0.84;79.51
43071;BME280;36278;47.952;21.714;2023-01-29T06:07:42;101124.88;;;0.77;79.33
43071;BME280;36278;47.952;21.714;2023-01-29T06:10:14;101128.19;;;0.83;79.88
43071;BME280;36278;47.952;21.714;2023-01-29T06:12:40;101126.31;;;0.89;79.75
43071;BME280;36278;47.952;21.714;2023-01-29T06:15:06;101123.03;;;0.82;79.06
43071;BME280;36278;47.952;21.714;2023-01-29T06:17:31;101134.19;;;0.87;78.82
43071;BME280;36278;47.952;21.714;2023-01-29T06:19:57;101146.47;;;0.83;78.34
43071;BME280;36278;47.952;21.714;2023-01-29T06:22:22;101155.91;;;0.88;78.26
43071;BME280;36278;47.952;21.714;2023-01-29T06:24:48;101153.13;;;0.95;78.84
43071;BME280;36278;47.952;21.714;2023-01-29T06:27:13;101156.78;;;0.88;78.03
43071;BME280;36278;47.952;21.714;2023-01-29T06:29:39;101156.75;;;0.90;78.22
43071;BME280;36278;47.952;21.714;2023-01-29T06:32:04;101161.78;;;0.97;77.95
43071;BME280;36278;47.952;21.714;2023-01-29T06:34:30;101163.72;;;0.88;78.63
43071;BME280;36278;47.952;21.714;2023-01-29T06:36:56;101161.78;;;0.97;77.93
43071;BME280;36278;47.952;21.714;2023-01-29T06:39:21;101151.50;;;0.91;77.95
43071;BME280;36278;47.952;21.714;2023-01-29T06:41:46;101158.44;;;0.92;77.17
43071;BME280;36278;47.952;21.714;2023-01-29T06:44:12;101162.63;;;0.99;77.86
43071;BME280;36278;47.952;21.714;2023-01-29T06:46:37;101165.28;;;0.96;77.56
43071;BME280;36278;47.952;21.714;2023-01-29T06:49:03;101167.16;;;0.91;77.39
43071;BME280;36278;47.952;21.714;2023-01-29T06:51:28;101164.38;;;0.97;77.41
43071;BME280;36278;47.952;21.714;2023-01-29T06:53:54;101166.66;;;1.12;77.31
43071;BME280;36278;47.952;21.714;2023-01-29T06:56:21;101173.66;;;1.10;76.05
43071;BME280;36278;47.952;21.714;2023-01-29T06:58:47;101178.09;;;1.05;76.90
43071;BME280;36278;47.952;21.714;2023-01-29T07:01:12;101175.31;;;1.13;76.30
43071;BME280;36278;47.952;21.714;2023-01-29T07:03:38;101169.47;;;1.03;77.61
43071;BME280;36278;47.952;21.714;2023-01-29T07:06:05;101170.22;;;1.08;76.85
43071;BME280;36278;47.952;21.714;2023-01-29T07:08:36;101165.00;;;1.08;76.82
43071;BME280;36278;47.952;21.714;2023-01-29T07:11:02;101167.28;;;1.24;75.82
43071;BME280;36278;47.952;21.714;2023-01-29T07:13:27;101165.06;;;1.05;76.61
43071;BME280;36278;47.952;21.714;2023-01-29T07:15:53;101164.53;;;0.91;77.52
43071;BME280;36278;47.952;21.714;2023-01-29T07:18:19;101163.41;;;1.03;77.77
43071;BME280;36278;47.952;21.714;2023-01-29T07:20:44;101159.38;;;0.90;76.70
43071;BME280;36278;47.952;21.714;2023-01-29T07:23:11;101172.19;;;0.99;76.52
43071;BME280;36278;47.952;21.714;2023-01-29T07:25:38;101168.03;;;0.90;76.46
43071;BME280;36278;47.952;21.714;2023-01-29T07:28:03;101159.06;;;1.02;75.88
43071;BME280;36278;47.952;21.714;2023-01-29T07:30:29;101153.72;;;1.08;75.75
43071;BME280;36278;47.952;21.714;2023-01-29T07:33:06;101168.56;;;1.04;76.18
43071;BME280;36278;47.952;21.714;2023-01-29T07:35:40;101170.91;;;1.17;76.66
43071;BME280;36278;47.952;21.714;2023-01-29T07:38:08;101165.91;;;1.07;76.49
43071;BME280;36278;47.952;21.714;2023-01-29T07:40:34;101175.09;;;1.24;77.29
43071;BME280;36278;47.952;21.714;2023-01-29T07:43:01;101178.66;;;1.20;76.89
43071;BME280;36278;47.952;21.714;2023-01-29T07:45:28;101171.16;;;1.06;76.21
43071;BME280;36278;47.952;21.714;2023-01-29T07:47:54;101183.09;;;1.16;78.13
43071;BME280;36278;47.952;21.714;2023-01-29T07:50:21;101168.19;;;1.21;77.89
43071;BME280;36278;47.952;21.714;2023-01-29T07:52:47;101169.25;;;1.12;77.46
43071;BME280;36278;47.952;21.714;2023-01-29T07:55:12;101162.28;;;1.15;78.62
43071;BME280;36278;47.952;21.714;2023-01-29T07:57:38;101157.69;;;1.24;78.31
43071;BME280;36278;47.952;21.714;2023-01-29T08:00:03;101165.38;;;1.29;78.50
43071;BME280;36278;47.952;21.714;2023-01-29T08:02:29;101169.75;;;1.28;77.26
43071;BME280;36278;47.952;21.714;2023-01-29T08:04:54;101167.94;;;1.32;76.45
43071;BME280;36278;47.952;21.714;2023-01-29T08:07:20;101165.38;;;1.30;77.38
43071;BME280;36278;47.952;21.714;2023-01-29T08:09:45;101161.88;;;1.30;78.63
43071;BME280;36278;47.952;21.714;2023-01-29T08:12:11;101163.97;;;1.16;78.62
43071;BME280;36278;47.952;21.714;2023-01-29T08:14:36;101163.97;;;1.16;78.03
43071;BME280;36278;47.952;21.714;2023-01-29T08:17:02;101166.66;;;1.12;77.73
43071;BME280;36278;47.952;21.714;2023-01-29T08:19:27;101163.13;;;1.15;79.46
43071;BME280;36278;47.952;21.714;2023-01-29T08:21:53;101170.59;;;1.29;78.43
43071;BME280;36278;47.952;21.714;2023-01-29T08:24:18;101177.75;;;1.21;79.55
43071;BME280;36278;47.952;21.714;2023-01-29T08:26:43;101170.94;;;1.15;78.97
43071;BME280;36278;47.952;21.714;2023-01-29T08:29:10;101184.81;;;1.17;79.93
43071;BME280;36278;47.952;21.714;2023-01-29T08:31:36;101192.59;;;1.19;77.67
43071;BME280;36278;47.952;21.714;2023-01-29T08:34:01;101190.94;;;1.16;77.61
43071;BME280;36278;47.952;21.714;2023-01-29T08:36:27;101191.88;;;1.12;78.87
43071;BME280;36278;47.952;21.714;2023-01-29T08:38:52;101192.06;;;1.04;78.66
43071;BME280;36278;47.952;21.714;2023-01-29T08:41:18;101185.13;;;1.03;78.93
43071;BME280;36278;47.952;21.714;2023-01-29T08:43:43;101204.84;;;1.17;78.87
43071;BME280;36278;47.952;21.714;2023-01-29T08:46:09;101204.06;;;1.11;79.41
43071;BME280;36278;47.952;21.714;2023-01-29T08:48:34;101217.03;;;1.16;79.98
43071;BME280;36278;47.952;21.714;2023-01-29T08:51:00;101213.34;;;1.25;80.89
43071;BME280;36278;47.952;21.714;2023-01-29T08:53:26;101227.84;;;1.36;79.06
43071;BME280;36278;47.952;21.714;2023-01-29T08:55:52;101216.09;;;1.19;80.11
43071;BME280;36278;47.952;21.714;2023-01-29T08:58:19;101219.84;;;1.05;81.14
43071;BME280;36278;47.952;21.714;2023-01-29T09:00:44;101218.88;;;1.11;80.34
43071;BME280;36278;47.952;21.714;2023-01-29T09:03:10;101191.28;;;1.01;81.15
43071;BME280;36278;47.952;21.714;2023-01-29T09:05:37;101219.69;;;1.15;81.23
43071;BME280;36278;47.952;21.714;2023-01-29T09:08:04;101213.31;;;1.26;80.53
43071;BME280;36278;47.952;21.714;2023-01-29T09:10:30;101210.88;;;1.19;79.53
43071;BME280;36278;47.952;21.714;2023-01-29T09:12:55;101212.72;;;1.13;79.21
43071;BME280;36278;47.952;21.714;2023-01-29T09:15:21;101216.22;;;1.14;79.66
43071;BME280;36278;47.952;21.714;2023-01-29T09:17:46;101216.13;;;1.17;79.19
43071;BME280;36278;47.952;21.714;2023-01-29T09:20:13;101224.69;;;1.24;79.16
43071;BME280;36278;47.952;21.714;2023-01-29T09:22:40;101222.06;;;1.24;79.08
43071;BME280;36278;47.952;21.714;2023-01-29T09:25:06;101229.19;;;1.17;77.65
43071;BME280;36278;47.952;21.714;2023-01-29T09:27:32;101231.66;;;1.23;78.23
43071;BME280;36278;47.952;21.714;2023-01-29T09:29:57;101234.28;;;1.22;77.09
43071;BME280;36278;47.952;21.714;2023-01-29T09:32:23;101232.56;;;1.21;77.73
43071;BME280;36278;47.952;21.714;2023-01-29T09:34:48;101230.25;;;1.08;77.08
43071;BME280;36278;47.952;21.714;2023-01-29T09:37:14;101232.00;;;1.08;77.71
43071;BME280;36278;47.952;21.714;2023-01-29T09:39:42;101240.00;;;1.00;78.57
43071;BME280;36278;47.952;21.714;2023-01-29T09:47:32;101237.19;;;1.09;77.43
43071;BME280;36278;47.952;21.714;2023-01-29T09:52:32;101227.44;;;1.18;76.53
43071;BME280;36278;47.952;21.714;2023-01-29T09:55:08;101243.16;;;1.15;77.14
43071;BME280;36278;47.952;21.714;2023-01-29T09:57:58;101241.38;;;1.17;76.23
43071;BME280;36278;47.952;21.714;2023-01-29T10:11:55;101235.34;;;1.15;75.91
43071;BME280;36278;47.952;21.714;2023-01-29T10:25:40;101230.84;;;1.20;74.39
43071;BME280;36278;47.952;21.714;2023-01-29T10:28:20;101237.34;;;1.40;74.59
43071;BME280;36278;47.952;21.714;2023-01-29T10:30:50;101235.59;;;1.41;73.72
43071;BME280;36278;47.952;21.714;2023-01-29T10:33:20;101219.97;;;1.39;73.50
43071;BME280;36278;47.952;21.714;2023-01-29T10:35:52;101232.25;;;1.34;73.95
43071;BME280;36278;47.952;21.714;2023-01-29T10:38:44;101223.28;;;1.46;73.45
43071;BME280;36278;47.952;21.714;2023-01-29T10:43:53;101221.06;;;1.66;73.24
43071;BME280;36278;47.952;21.714;2023-01-29T10:57:40;101217.00;;;1.53;72.56
43071;BME280;36278;47.952;21.714;2023-01-29T11:00:22;101214.22;;;1.61;72.06
43071;BME280;36278;47.952;21.714;2023-01-29T11:02:50;101203.78;;;1.61;nan
43071;BME280;36278;47.952;21.714;2023-01-29T11:05:36;101198.84;;;1.84;71.45
43071;BME280;36278;47.952;21.714;2023-01-29T11:08:12;101206.38;;;1.96;70.79
43071;BME280;36278;47.952;21.714;2023-01-29T11:11:30;101196.84;;;1.94;70.82
43071;BME280;36278;47.952;21.714;2023-01-29T11:13:36;101200.34;;;1.93;70.29
43071;BME280;36278;47.952;21.714;2023-01-29T11:16:08;101190.19;;;1.82;70.68
43071;BME280;36278;47.952;21.714;2023-01-29T11:18:58;101184.97;;;1.82;70.44
43071;BME280;36278;47.952;21.714;2023-01-29T11:21:26;101186.72;;;1.82;69.96
43071;BME280;36278;47.952;21.714;2023-01-29T11:24:24;101190.47;;;1.70;70.46
43071;BME280;36278;47.952;21.714;2023-01-29T11:26:52;101182.88;;;1.61;71.11
43071;BME280;36278;47.952;21.714;2023-01-29T11:29:40;101175.91;;;1.63;71.06
43071;BME280;36278;47.952;21.714;2023-01-29T11:32:12;101180.84;;;1.74;71.44
43071;BME280;36278;47.952;21.714;2023-01-29T11:35:02;101173.50;;;1.88;70.21
43071;BME280;36278;47.952;21.714;2023-01-29T11:37:36;101165.88;;;2.11;68.79
43071;BME280;36278;47.952;21.714;2023-01-29T11:42:52;101166.63;;;2.16;68.42
43071;BME280;36278;47.952;21.714;2023-01-29T11:45:28;101147.47;;;2.16;68.67
43071;BME280;36278;47.952;21.714;2023-01-29T11:47:57;101142.16;;;1.88;70.22
43071;BME280;36278;47.952;21.714;2023-01-29T11:50:31;101144.53;;;1.97;70.52
43071;BME280;36278;47.952;21.714;2023-01-29T11:53:00;101152.75;;;1.82;70.72
43071;BME280;36278;47.952;21.714;2023-01-29T11:55:33;101146.22;;;1.98;69.37
43071;BME280;36278;47.952;21.714;2023-01-29T11:58:10;101153.13;;;2.01;70.06
43071;BME280;36278;47.952;21.714;2023-01-29T12:00:39;101140.97;;;2.00;69.69
43071;BME280;36278;47.952;21.714;2023-01-29T12:03:15;101138.06;;;1.78;69.67
43071;BME280;36278;47.952;21.714;2023-01-29T12:06:04;101127.59;;;1.79;69.25
43071;BME280;36278;47.952;21.714;2023-01-29T12:08:37;101124.13;;;1.77;68.43
43071;BME280;36278;47.952;21.714;2023-01-29T12:11:30;101128.94;;;1.60;69.73
43071;BME280;36278;47.952;21.714;2023-01-29T12:13:58;101128.69;;;1.69;69.49
43071;BME280;36278;47.952;21.714;2023-01-29T12:16:49;101112.69;;;1.83;68.84
43071;BME280;36278;47.952;21.714;2023-01-29T12:19:37;101118.00;;;1.78;68.30
43071;BME280;36278;47.952;21.714;2023-01-29T12:24:58;101128.25;;;1.87;67.59
43071;BME280;36278;47.952;21.714;2023-01-29T12:28:17;101128.16;;;1.90;68.52
43071;BME280;36278;47.952;21.714;2023-01-29T12:30:47;101129.19;;;1.83;67.56
43071;BME280;36278;47.952;21.714;2023-01-29T12:33:29;101130.41;;;1.70;67.86
43071;BME280;36278;47.952;21.714;2023-01-29T12:36:12;101124.00;;;1.49;67.67
43071;BME280;36278;47.952;21.714;2023-01-29T12:38:38;101116.09;;;1.52;69.66
43071;BME280;36278;47.952;21.714;2023-01-29T12:43:52;101111.22;;;1.73;68.23
43071;BME280;36278;47.952;21.714;2023-01-29T12:46:30;101110.97;;;1.82;67.27
43071;BME280;36278;47.952;21.714;2023-01-29T12:49:00;101097.84;;;1.83;66.60
43071;BME280;36278;47.952;21.714;2023-01-29T12:51:36;101096.00;;;1.87;67.48
43071;BME280;36278;47.952;21.714;2023-01-29T12:54:06;101092.69;;;1.82;66.91
43071;BME280;36278;47.952;21.714;2023-01-29T12:56:45;101096.16;;;1.82;66.08
43071;BME280;36278;47.952;21.714;2023-01-29T12:59:18;101099.94;;;1.71;67.44
43071;BME280;36278;47.952;21.714;2023-01-29T13:01:55;101095.41;;;1.77;67.90
43071;BME280;36278;47.952;21.714;2023-01-29T13:07:27;101101.75;;;2.00;66.21
43071;BME280;36278;47.952;21.714;2023-01-29T13:10:02;101100.84;;;2.01;67.42
43071;BME280;36278;47.952;21.714;2023-01-29T13:12:30;101100.00;;;2.00;67.25
43071;BME280;36278;47.952;21.714;2023-01-29T13:15:04;101104.94;;;1.80;66.08
43071;BME280;36278;47.952;21.714;2023-01-29T13:17:42;101101.72;;;1.68;67.65
43071;BME280;36278;47.952;21.714;2023-01-29T13:20:23;101095.44;;;1.76;67.87
43071;BME280;36278;47.952;21.714;2023-01-29T13:22:51;101099.88;;;1.74;67.32
43071;BME280;36278;47.952;21.714;2023-01-29T13:25:19;101077.97;;;1.78;66.88
43071;BME280;36278;47.952;21.714;2023-01-29T13:27:45;101086.66;;;1.78;66.81
43071;BME280;36278;47.952;21.714;2023-01-29T13:32:53;101084.56;;;1.60;67.68
43071;BME280;36278;47.952;21.714;2023-01-29T13:35:21;101086.97;;;1.67;68.05
43071;BME280;36278;47.952;21.714;2023-01-29T13:37:52;101077.31;;;1.69;66.95
43071;BME280;36278;47.952;21.714;2023-01-29T13:40:23;101086.16;;;1.65;67.95
43071;BME280;36278;47.952;21.714;2023-01-29T13:42:50;101073.84;;;1.69;68.39
43071;BME280;36278;47.952;21.714;2023-01-29T13:45:28;101077.84;;;1.82;67.80
43071;BME280;36278;47.952;21.714;2023-01-29T13:48:08;101076.66;;;1.94;66.12
43071;BME280;36278;47.952;21.714;2023-01-29T13:50:40;101063.78;;;1.88;65.98
43071;BME280;36278;47.952;21.714;2023-01-29T13:53:15;101068.69;;;1.99;65.44
43071;BME280;36278;47.952;21.714;2023-01-29T13:55:43;101067.97;;;1.93;66.36
43071;BME280;36278;47.952;21.714;2023-01-29T13:58:16;101069.38;;;2.05;65.83
43071;BME280;36278;47.952;21.714;2023-01-29T14:06:01;101069.72;;;1.93;67.26
43071;BME280;36278;47.952;21.714;2023-01-29T14:13:41;101058.34;;;1.94;65.49
43071;BME280;36278;47.952;21.714;2023-01-29T14:18:52;101059.69;;;1.78;66.33
43071;BME280;36278;47.952;21.714;2023-01-29T14:21:23;101046.78;;;1.73;67.31
43071;BME280;36278;47.952;21.714;2023-01-29T14:23:54;101056.81;;;1.87;66.40
43071;BME280;36278;47.952;21.714;2023-01-29T14:29:06;101055.16;;;1.84;65.62
43071;BME280;36278;47.952;21.714;2023-01-29T14:34:20;101054.47;;;1.78;66.10
43071;BME280;36278;47.952;21.714;2023-01-29T14:36:48;101053.81;;;1.71;65.93
43071;BME280;36278;47.952;21.714;2023-01-29T14:39:23;101062.28;;;1.79;66.45
43071;BME280;36278;47.952;21.714;2023-01-29T14:41:52;101051.03;;;1.76;66.01
43071;BME280;36278;47.952;21.714;2023-01-29T14:53:19;101069.81;;;1.90;67.28
43071;BME280;36278;47.952;21.714;2023-01-29T14:58:24;101064.50;;;1.93;65.35
43071;BME280;36278;47.952;21.714;2023-01-29T15:00:54;101066.34;;;1.89;65.41
43071;BME280;36278;47.952;21.714;2023-01-29T15:06:05;101061.53;;;1.74;65.55
43071;BME280;36278;47.952;21.714;2023-01-29T15:08:39;101069.31;;;1.76;66.08
43071;BME280;36278;47.952;21.714;2023-01-29T15:11:19;101053.66;;;1.76;66.60
43071;BME280;36278;47.952;21.714;2023-01-29T15:14:15;101076.06;;;1.84;65.75
43071;BME280;36278;47.952;21.714;2023-01-29T15:17:26;101077.06;;;1.80;66.29
43071;BME280;36278;47.952;21.714;2023-01-29T15:19:53;101072.59;;;1.84;66.58
43071;BME280;36278;47.952;21.714;2023-01-29T15:22:20;101070.97;;;1.80;65.92
43071;BME280;36278;47.952;21.714;2023-01-29T15:25:11;101077.97;;;1.78;66.27
43071;BME280;36278;47.952;21.714;2023-01-29T15:27:40;101070.13;;;1.79;66.63